LLHA/HFA METAR and TAF weather

Enter ICAO airport designator
Station Type Date Time Source
LLHA METAR 2019/02/16 17:50 UTC NOAA

LLHA 161750Z 12004KT 9999 FEW030 11/09 Q1022 RERA RMK SCT070


Station Type Date Time Source
LLHA Decoded METAR 2019/02/16 17:50 UTC NOAA

Sde-Haifa Haifa, Israel (LLHA) 32-48N 035-02E 8M
Feb 16, 2019 - 12:50 PM EST / 2019.02.16 1750 UTC
Wind: from the ESE (120 degrees) at 5 MPH (4 KT):0
Visibility: greater than 7 mile(s):0
Sky conditions: mostly clear
Temperature: 51 F (11 C)
Dew Point: 48 F (9 C)
Relative Humidity: 87%
Pressure (altimeter): 30.18 in. Hg (1022 hPa)
ob: LLHA 161750Z 12004KT 9999 FEW030 11/09 Q1022 RERA RMK SCT070
cycle: 18

Station Type Date Time Source
LLHA TAF 2019/02/16 18:00 UTC NOAA

TAF LLHA 161721Z 1618/1718 14006KT 9999 SCT030
TEMPO 1618/1707 24015G25KT 5000 TSRA FEW020CB BKN025
BECMG 1707/1709 23012KT SCT035 PROB30 1709/1715 27015G25KT 7000 RA FEW025CB BKN030
BECMG 1715/1717 17006KT TX16/1711Z TN09/1704Z


Example: see airport list